Time;durP1;ratioP1;P1;durP2;ratioP2;P2;SDS_P1;SDS_P2;PMS_P1;PMS_P2;Temp;Humidity;BMP_temperature;BMP_pressure;BME280_temperature;BME280_humidity;BME280_pressure;Samples;Min_cycle;Max_cycle;Signal;HPM_P1;HPM_P2
2022/07/08 00:01:18;;;;;;;4.90;3.43;;;;;;;16.09;nan;94820.97;5049162;28;20205;-63
2022/07/08 00:04:02;;;;;;;6.50;3.20;;;;;;;15.89;nan;94824.56;5051444;28;20232;-63
2022/07/08 00:06:46;;;;;;;6.40;3.27;;;;;;;15.94;nan;94829.13;5054170;28;20221;-63
2022/07/08 00:09:30;;;;;;;4.03;3.30;;;;;;;15.84;nan;94828.47;5044631;28;20205;-63
2022/07/08 00:12:14;;;;;;;4.77;3.40;;;;;;;15.97;nan;94825.09;5046988;28;20605;-63
2022/07/08 00:14:58;;;;;;;4.47;3.33;;;;;;;15.94;nan;94832.69;5056719;28;20331;-63
2022/07/08 00:17:42;;;;;;;3.97;2.80;;;;;;;15.89;nan;94830.22;5054851;28;20201;-63
2022/07/08 00:20:26;;;;;;;4.80;3.03;;;;;;;15.76;nan;94835.06;5050801;28;20197;-63
2022/07/08 00:23:11;;;;;;;4.07;3.03;;;;;;;15.79;nan;94824.63;5052464;28;20265;-63
2022/07/08 00:25:54;;;;;;;6.23;3.20;;;;;;;15.93;nan;94819.16;5047120;28;20205;-63
2022/07/08 00:28:38;;;;;;;6.27;3.33;;;;;;;15.80;nan;94828.22;5046681;28;20690;-64
2022/07/08 00:31:23;;;;;;;3.60;3.07;;;;;;;15.93;nan;94828.38;5050102;28;20259;-64
2022/07/08 00:34:08;;;;;;;8.57;3.10;;;;;;;15.77;nan;94825.22;5050404;28;20217;-64
2022/07/08 00:36:52;;;;;;;5.50;3.00;;;;;;;15.74;nan;94829.25;5051045;28;20241;-64
2022/07/08 00:39:37;;;;;;;3.73;3.37;;;;;;;15.63;nan;94821.47;5044735;28;20201;-64
2022/07/08 00:42:21;;;;;;;4.07;3.37;;;;;;;15.70;nan;94831.81;5047010;28;20193;-64
2022/07/08 00:45:06;;;;;;;4.10;3.43;;;;;;;15.63;nan;94821.47;5048322;28;20193;-64
2022/07/08 00:47:50;;;;;;;5.10;3.23;;;;;;;15.78;nan;94814.66;5048151;28;20260;-64
2022/07/08 00:50:34;;;;;;;6.27;3.73;;;;;;;15.58;nan;94814.06;5048851;28;20733;-64
2022/07/08 00:53:18;;;;;;;6.10;3.23;;;;;;;15.48;nan;94821.84;5049272;28;20276;-63
2022/07/08 00:56:03;;;;;;;7.63;3.67;;;;;;;15.30;nan;94829.06;5056259;28;20279;-64
2022/07/08 00:58:48;;;;;;;3.70;3.27;;;;;;;15.35;nan;94816.72;5045561;28;20341;-64
2022/07/08 01:01:32;;;;;;;4.43;3.13;;;;;;;15.66;nan;94811.78;5048396;28;20205;-64
2022/07/08 01:04:16;;;;;;;4.30;3.40;;;;;;;15.55;nan;94820.19;5050464;28;20275;-64
2022/07/08 01:07:01;;;;;;;7.77;3.70;;;;;;;15.50;nan;94821.22;5042645;28;20210;-64
2022/07/08 01:09:45;;;;;;;5.60;3.33;;;;;;;15.69;nan;94816.22;5047910;28;20205;-64
2022/07/08 01:12:29;;;;;;;3.80;3.10;;;;;;;15.53;nan;94812.31;5047664;28;20290;-64
2022/07/08 01:15:14;;;;;;;6.83;3.37;;;;;;;15.51;nan;94819.88;5047622;28;20202;-64
2022/07/08 01:17:58;;;;;;;6.33;3.17;;;;;;;15.33;nan;94822.22;5047716;28;20197;-64
2022/07/08 01:20:45;;;;;;;3.47;3.17;;;;;;;15.65;nan;94820.84;5047607;28;20237;-64
2022/07/08 01:23:29;;;;;;;5.87;3.67;;;;;;;15.63;nan;94815.81;5044789;28;20196;-64
2022/07/08 01:26:13;;;;;;;3.47;3.10;;;;;;;15.57;nan;94831.59;5047863;28;20197;-64
2022/07/08 01:28:57;;;;;;;5.23;3.20;;;;;;;15.56;nan;94816.75;5051433;28;20202;-64
2022/07/08 01:31:42;;;;;;;7.87;3.40;;;;;;;15.52;nan;94822.13;5051720;28;20229;-64
2022/07/08 01:34:26;;;;;;;4.70;3.13;;;;;;;15.81;nan;94826.84;5047855;28;20625;-64
2022/07/08 01:37:10;;;;;;;4.30;3.40;;;;;;;15.56;nan;94822.38;5050020;28;20201;-64
2022/07/08 01:39:54;;;;;;;4.93;3.43;;;;;;;15.70;nan;94820.53;5049938;28;20247;-64
2022/07/08 01:42:37;;;;;;;4.43;3.83;;;;;;;15.49;nan;94828.22;5048073;28;20562;-64
2022/07/08 01:45:21;;;;;;;5.10;3.40;;;;;;;15.53;nan;94829.25;5048346;28;20204;-64
2022/07/08 01:48:05;;;;;;;5.40;3.20;;;;;;;15.57;nan;94835.19;5050742;28;20229;-64
2022/07/08 01:50:49;;;;;;;9.17;3.73;;;;;;;15.46;nan;94830.16;5047811;28;20196;-64
2022/07/08 01:53:33;;;;;;;4.70;3.00;;;;;;;15.67;nan;94833.03;5047913;28;20257;-64
2022/07/08 01:56:17;;;;;;;6.03;3.63;;;;;;;15.58;nan;94831.00;5050210;28;20220;-64
2022/07/08 01:59:02;;;;;;;3.77;3.37;;;;;;;15.44;nan;94835.66;5050046;28;20217;-64
2022/07/08 02:01:45;;;;;;;4.00;3.60;;;;;;;15.36;nan;94837.97;5043271;28;20305;-64
2022/07/08 02:04:30;;;;;;;4.97;3.93;;;;;;;15.55;nan;94832.22;5047252;28;20321;-64
2022/07/08 02:07:15;;;;;;;4.93;3.80;;;;;;;15.42;nan;94829.91;5057661;28;20673;-64
2022/07/08 02:09:59;;;;;;;6.23;4.07;;;;;;;15.49;nan;94828.94;5043892;28;20210;-64
2022/07/08 02:12:43;;;;;;;3.67;3.23;;;;;;;15.39;nan;94831.09;5035134;28;20221;-64
2022/07/08 02:15:27;;;;;;;5.20;3.90;;;;;;;15.51;nan;94831.91;5047342;28;20750;-64
2022/07/08 02:18:11;;;;;;;4.47;3.77;;;;;;;15.57;nan;94838.00;5052884;28;20205;-64
2022/07/08 02:20:55;;;;;;;6.23;3.53;;;;;;;15.41;nan;94838.97;5057723;28;20671;-64
2022/07/08 02:23:39;;;;;;;6.93;3.90;;;;;;;15.24;nan;94837.13;5044102;28;20193;-64
2022/07/08 02:26:23;;;;;;;4.70;3.70;;;;;;;15.37;nan;94839.41;5051050;28;20263;-64
2022/07/08 02:29:08;;;;;;;6.13;4.03;;;;;;;15.22;nan;94829.25;5057534;28;20328;-64
2022/07/08 02:31:52;;;;;;;4.27;3.40;;;;;;;15.38;nan;94823.97;5050866;28;20221;-65
2022/07/08 02:34:36;;;;;;;5.00;3.70;;;;;;;15.43;nan;94831.34;5046973;28;20198;-64
2022/07/08 02:37:21;;;;;;;5.57;3.83;;;;;;;15.24;nan;94837.13;5060171;28;20201;-65
2022/07/08 02:40:05;;;;;;;5.00;3.70;;;;;;;15.20;nan;94839.66;5059548;28;20232;-64
2022/07/08 02:42:50;;;;;;;4.93;3.43;;;;;;;15.32;nan;94843.31;5051326;28;20197;-64
2022/07/08 02:45:34;;;;;;;6.23;4.00;;;;;;;15.36;nan;94838.69;5046996;28;20284;-64
2022/07/08 02:48:18;;;;;;;5.87;3.67;;;;;;;15.39;nan;94845.22;5053114;28;20283;-64
2022/07/08 02:51:02;;;;;;;7.87;3.70;;;;;;;15.40;nan;94846.69;5049005;28;20327;-64
2022/07/08 02:53:47;;;;;;;5.77;3.50;;;;;;;15.43;nan;94853.25;5053133;28;20232;-64
2022/07/08 02:56:32;;;;;;;3.97;3.57;;;;;;;15.31;nan;94847.47;5049326;28;20298;-64
2022/07/08 02:59:15;;;;;;;6.07;4.10;;;;;;;15.23;nan;94852.59;5048612;28;20305;-64
2022/07/08 03:01:59;;;;;;;4.40;4.00;;;;;;;15.21;nan;94860.91;5056603;28;20192;-64
2022/07/08 03:04:43;;;;;;;4.47;3.70;;;;;;;15.26;nan;94859.84;5052364;28;20249;-64
2022/07/08 03:07:27;;;;;;;4.20;3.60;;;;;;;15.39;nan;94864.97;5045179;28;20248;-64
2022/07/08 03:10:11;;;;;;;8.33;3.90;;;;;;;15.24;nan;94865.38;5053044;28;20232;-64
2022/07/08 03:12:55;;;;;;;4.60;3.20;;;;;;;15.27;nan;94858.50;5050873;28;20229;-64
2022/07/08 03:15:39;;;;;;;4.93;3.10;;;;;;;15.03;nan;94876.56;5051912;28;20286;-64
2022/07/08 03:18:23;;;;;;;6.60;2.63;;;;;;;14.70;nan;94879.94;5052719;28;20267;-64
2022/07/08 03:21:08;;;;;;;6.30;3.83;;;;;;;14.43;nan;94893.50;5052257;28;20267;-64
2022/07/08 03:23:52;;;;;;;9.73;2.43;;;;;;;14.74;nan;94888.69;5072713;28;20193;-64
2022/07/08 03:26:36;;;;;;;4.47;2.10;;;;;;;14.59;nan;94886.19;5048477;28;20570;-64
2022/07/08 03:29:20;;;;;;;3.03;2.03;;;;;;;14.16;nan;94894.34;5051194;28;20209;-64
2022/07/08 03:32:04;;;;;;;4.47;2.30;;;;;;;14.14;nan;94908.28;5051592;28;20225;-64
2022/07/08 03:34:48;;;;;;;7.20;2.40;;;;;;;14.43;nan;94901.94;5055059;28;20198;-64
2022/07/08 03:37:32;;;;;;;5.93;2.20;;;;;;;14.41;nan;94910.25;5052414;28;20221;-64
2022/07/08 03:43:19;;;;;;;6.70;2.30;;;;;;;14.12;nan;94927.88;5052973;28;20193;-64
2022/07/08 03:46:03;;;;;;;5.63;2.30;;;;;;;14.02;nan;94926.38;5049278;28;20594;-64
2022/07/08 03:48:48;;;;;;;2.97;2.00;;;;;;;14.48;nan;94943.22;5052720;28;20225;-64
2022/07/08 03:51:32;;;;;;;9.57;2.37;;;;;;;14.47;nan;94945.28;5048316;28;20264;-65
2022/07/08 03:54:16;;;;;;;3.40;1.90;;;;;;;14.35;nan;94943.63;5045898;28;20217;-64
2022/07/08 03:57:00;;;;;;;5.53;2.53;;;;;;;14.10;nan;94952.34;5051283;28;20209;-64
2022/07/08 03:59:44;;;;;;;10.83;3.13;;;;;;;14.21;nan;94956.66;5046343;28;20213;-64
2022/07/08 04:02:28;;;;;;;14.77;2.27;;;;;;;14.26;nan;94962.00;5047576;28;20188;-64
2022/07/08 04:05:12;;;;;;;5.60;2.07;;;;;;;14.36;nan;94962.03;5049919;28;20228;-64
2022/07/08 04:07:57;;;;;;;4.47;1.87;;;;;;;14.54;nan;94972.59;5047384;28;20206;-64
2022/07/08 04:10:41;;;;;;;7.80;2.57;;;;;;;14.24;nan;94966.75;5051185;28;20252;-64
2022/07/08 04:13:27;;;;;;;4.93;2.23;;;;;;;14.32;nan;94978.66;5048919;28;20292;-64
2022/07/08 04:16:15;;;;;;;9.67;2.40;;;;;;;14.03;nan;94987.03;5047586;28;20638;-64
2022/07/08 04:18:59;;;;;;;6.00;2.03;;;;;;;14.30;nan;94992.59;5056653;28;20197;-64
2022/07/08 04:21:42;;;;;;;8.53;2.37;;;;;;;14.40;nan;94993.38;5057334;28;20701;-64
2022/07/08 04:24:26;;;;;;;5.17;2.23;;;;;;;14.26;nan;94997.94;5047268;28;20272;-64
2022/07/08 04:27:10;;;;;;;7.43;1.80;;;;;;;14.10;nan;94998.19;5048864;28;20981;-64
2022/07/08 04:29:54;;;;;;;8.37;1.83;;;;;;;14.13;nan;94994.19;5049721;28;20205;-64
2022/07/08 04:32:38;;;;;;;5.70;1.90;;;;;;;13.77;nan;94999.88;5050518;28;20268;-64
2022/07/08 04:35:22;;;;;;;6.83;1.67;;;;;;;13.77;nan;95005.50;5050401;28;20205;-64
2022/07/08 04:38:06;;;;;;;9.43;2.00;;;;;;;13.72;nan;95015.72;5050372;28;20209;-65
2022/07/08 04:40:50;;;;;;;4.53;1.93;;;;;;;13.91;nan;95003.78;5048503;28;20206;-65
2022/07/08 04:43:34;;;;;;;7.40;1.70;;;;;;;13.80;nan;95015.59;5048480;28;20233;-65
2022/07/08 04:46:18;;;;;;;7.87;2.10;;;;;;;13.64;nan;95014.38;5048807;28;20204;-64
2022/07/08 04:49:02;;;;;;;7.50;1.87;;;;;;;13.71;nan;95022.69;5049740;28;20217;-64
2022/07/08 04:51:46;;;;;;;11.13;2.13;;;;;;;13.74;nan;95023.59;5030265;28;20323;-65
2022/07/08 04:54:30;;;;;;;8.53;1.90;;;;;;;13.75;nan;95022.28;5049555;28;20192;-64
2022/07/08 04:57:14;;;;;;;5.63;2.13;;;;;;;13.94;nan;95019.53;5050864;28;20263;-64
2022/07/08 05:00:02;;;;;;;8.70;1.70;;;;;;;14.09;nan;95030.53;5050479;28;20198;-65
2022/07/08 05:02:47;;;;;;;7.83;2.10;;;;;;;14.14;nan;95018.22;5047635;28;20237;-64
2022/07/08 05:05:31;;;;;;;6.17;1.40;;;;;;;13.90;nan;95027.66;5047044;28;20194;-65
2022/07/08 05:08:15;;;;;;;8.27;2.00;;;;;;;13.98;nan;95030.34;5050988;28;20205;-65
2022/07/08 05:10:59;;;;;;;7.43;1.73;;;;;;;13.87;nan;95042.91;5049045;28;20333;-65
2022/07/08 05:13:43;;;;;;;3.57;1.83;;;;;;;14.36;nan;95035.34;5045216;28;20229;-64
2022/07/08 05:16:27;;;;;;;6.70;1.40;;;;;;;14.57;nan;95032.72;5050300;28;20721;-65
2022/07/08 05:19:11;;;;;;;5.27;1.60;;;;;;;14.70;nan;95040.72;5053200;28;20251;-65
2022/07/08 05:21:55;;;;;;;5.33;1.50;;;;;;;15.12;nan;95039.56;5051640;28;20296;-64
2022/07/08 05:24:39;;;;;;;11.33;1.60;;;;;;;15.07;nan;95037.75;5049948;28;20213;-65
2022/07/08 05:27:23;;;;;;;9.53;1.90;;;;;;;14.65;nan;95038.22;5035085;28;20252;-65
2022/07/08 05:30:09;;;;;;;4.13;1.40;;;;;;;14.78;nan;95046.97;5052784;28;20209;-65
2022/07/08 05:32:53;;;;;;;4.73;1.67;;;;;;;14.93;nan;95046.69;5050114;28;20224;-64
2022/07/08 05:35:37;;;;;;;9.60;1.80;;;;;;;15.07;nan;95051.88;5042419;28;20201;-65
2022/07/08 05:38:21;;;;;;;6.50;1.50;;;;;;;15.05;nan;95046.84;5049475;28;20265;-65
2022/07/08 05:41:05;;;;;;;8.73;1.83;;;;;;;14.83;nan;95048.03;5050555;28;20292;-64
2022/07/08 05:43:49;;;;;;;7.13;1.87;;;;;;;14.62;nan;95039.41;5046034;28;20247;-64
2022/07/08 05:46:34;;;;;;;5.20;0.93;;;;;;;15.05;nan;95040.44;5046746;28;20237;-64
2022/07/08 05:49:18;;;;;;;4.50;1.30;;;;;;;14.77;nan;95034.22;5043425;28;20204;-64
2022/07/08 05:52:06;;;;;;;5.07;1.23;;;;;;;14.81;nan;95042.25;5027078;28;20733;-64
2022/07/08 05:54:50;;;;;;;6.17;1.47;;;;;;;14.95;nan;95044.00;5047506;28;20240;-64
2022/07/08 05:57:34;;;;;;;5.17;1.47;;;;;;;14.84;nan;95052.31;5046863;28;20260;-64
2022/07/08 06:00:19;;;;;;;7.20;1.67;;;;;;;14.75;nan;95056.63;5048513;28;20200;-64
2022/07/08 06:03:05;;;;;;;5.33;1.37;;;;;;;14.47;nan;95062.97;5049645;28;20209;-64
2022/07/08 06:05:49;;;;;;;6.83;1.83;;;;;;;14.58;nan;95063.16;5045566;28;20210;-64
2022/07/08 06:08:33;;;;;;;8.17;1.40;;;;;;;15.14;nan;95071.47;5048708;28;20721;-64
2022/07/08 06:11:17;;;;;;;5.57;1.30;;;;;;;15.13;nan;95074.91;5046992;28;20622;-64
2022/07/08 06:14:01;;;;;;;6.60;1.37;;;;;;;15.36;nan;95080.84;5048212;28;20764;-63
2022/07/08 06:16:48;;;;;;;6.03;1.20;;;;;;;15.55;nan;95080.09;5047267;28;20206;-64
2022/07/08 06:19:32;;;;;;;3.00;0.83;;;;;;;15.82;nan;95080.59;5048743;28;20252;-64
2022/07/08 06:22:16;;;;;;;5.40;1.30;;;;;;;16.06;nan;95075.91;5056925;28;20200;-64
2022/07/08 06:25:00;;;;;;;3.57;1.37;;;;;;;16.04;nan;95073.69;5050693;28;20710;-64
2022/07/08 06:27:44;;;;;;;4.97;1.00;;;;;;;16.12;nan;95090.44;5047324;28;20280;-64
2022/07/08 06:30:28;;;;;;;6.57;1.30;;;;;;;16.53;nan;95082.66;5048247;28;20217;-64
2022/07/08 06:33:12;;;;;;;3.37;0.90;;;;;;;16.90;nan;95091.56;5046445;28;20267;-64
2022/07/08 06:35:56;;;;;;;5.37;1.50;;;;;;;17.35;nan;95090.25;5046794;28;20289;-64
2022/07/08 06:38:40;;;;;;;3.30;1.03;;;;;;;16.47;nan;95085.84;5051853;28;20564;-64
2022/07/08 06:41:24;;;;;;;8.83;1.93;;;;;;;16.68;nan;95092.88;5053645;28;20201;-65
2022/07/08 06:44:09;;;;;;;5.00;1.30;;;;;;;16.93;nan;95084.66;5048818;28;20197;-64
2022/07/08 06:46:54;;;;;;;5.23;1.20;;;;;;;17.42;nan;95080.06;5053372;28;20205;-64
2022/07/08 06:49:38;;;;;;;5.47;1.70;;;;;;;18.27;nan;95079.03;5052451;28;20201;-64
2022/07/08 06:52:22;;;;;;;5.50;1.33;;;;;;;17.75;nan;95085.75;5045778;28;20245;-64
2022/07/08 06:55:07;;;;;;;3.17;1.30;;;;;;;18.74;nan;95080.50;5052263;28;20252;-65
2022/07/08 06:57:51;;;;;;;4.67;1.43;;;;;;;18.82;nan;95089.50;5050990;28;20216;-65
2022/07/08 07:00:35;;;;;;;5.20;1.43;;;;;;;18.62;nan;95088.31;5046776;28;20220;-65
2022/07/08 07:03:19;;;;;;;5.32;1.25;;;;;;;19.44;nan;95100.19;5032171;28;20245;-65
2022/07/08 07:06:03;;;;;;;8.02;1.33;;;;;;;18.03;nan;95087.50;5049006;28;20689;-65
2022/07/08 07:08:48;;;;;;;5.05;1.10;;;;;;;18.59;nan;95089.53;5050961;28;20197;-66
2022/07/08 07:11:32;;;;;;;5.72;1.83;;;;;;;17.49;nan;95096.13;5038183;28;20677;-64
2022/07/08 07:14:16;;;;;;;6.05;1.65;;;;;;;17.42;nan;95097.06;5048746;28;20251;-64
2022/07/08 07:17:01;;;;;;;4.30;1.40;;;;;;;18.82;nan;95100.88;5055414;28;20818;-65
2022/07/08 07:19:45;;;;;;;4.25;1.25;;;;;;;18.58;nan;95105.06;5056118;28;20196;-64
2022/07/08 07:22:29;;;;;;;5.45;1.38;;;;;;;17.90;nan;95095.91;5037659;28;20661;-64
2022/07/08 07:25:13;;;;;;;6.72;1.75;;;;;;;18.61;nan;95103.84;5056153;28;20627;-64
2022/07/08 07:27:57;;;;;;;3.43;1.43;;;;;;;19.11;nan;95102.53;5042683;28;20260;-64
2022/07/08 07:30:41;;;;;;;9.20;1.40;;;;;;;18.97;nan;95100.34;5054279;28;20246;-66
2022/07/08 07:33:25;;;;;;;5.35;1.40;;;;;;;19.36;nan;95111.09;5053126;28;20237;-66
2022/07/08 07:36:09;;;;;;;4.72;1.35;;;;;;;18.55;nan;95104.22;5052996;28;20197;-65
2022/07/08 07:38:53;;;;;;;5.60;1.77;;;;;;;17.97;nan;95101.31;5038702;28;20213;-65
2022/07/08 07:41:38;;;;;;;7.93;1.83;;;;;;;19.13;nan;95100.56;5050553;28;20241;-67
2022/07/08 07:44:23;;;;;;;7.90;1.80;;;;;;;19.74;nan;95104.78;5045476;28;20224;-66
2022/07/08 07:47:08;;;;;;;5.30;1.73;;;;;;;20.67;nan;95114.81;5050774;28;20736;-67
2022/07/08 07:49:52;;;;;;;5.72;1.40;;;;;;;19.60;nan;95112.50;5035201;28;20202;-66
2022/07/08 07:52:36;;;;;;;6.30;1.40;;;;;;;19.46;nan;95103.16;5048625;28;20225;-67
2022/07/08 07:55:21;;;;;;;7.05;1.60;;;;;;;21.00;nan;95111.53;5044765;28;20251;-66
2022/07/08 07:58:06;;;;;;;6.43;1.67;;;;;;;21.03;nan;95115.22;5056036;28;20277;-66
2022/07/08 08:00:50;;;;;;;3.08;1.40;;;;;;;21.47;nan;95117.50;5044244;28;20639;-66
2022/07/08 08:03:34;;;;;;;7.43;1.83;;;;;;;20.88;nan;95117.34;5047267;28;20633;-66
2022/07/08 08:06:18;;;;;;;6.30;1.77;;;;;;;20.10;nan;95125.25;5055774;28;20197;-66
2022/07/08 08:09:02;;;;;;;5.10;1.38;;;;;;;19.75;nan;95129.00;5049239;28;20197;-66
2022/07/08 08:11:46;;;;;;;6.97;1.88;;;;;;;20.89;nan;95123.78;5044108;28;20240;-66
2022/07/08 08:14:30;;;;;;;4.55;1.25;;;;;;;19.63;nan;95116.94;5049938;28;20213;-66
2022/07/08 08:17:14;;;;;;;4.18;1.52;;;;;;;21.00;nan;95111.53;5057213;28;20213;-66
2022/07/08 08:19:58;;;;;;;5.18;1.60;;;;;;;21.19;nan;95116.81;5051346;28;20681;-66
2022/07/08 08:22:42;;;;;;;4.13;1.35;;;;;;;21.43;nan;95123.00;5047087;28;20742;-66
2022/07/08 08:25:27;;;;;;;4.60;1.63;;;;;;;22.25;nan;95130.53;5058628;28;20209;-66
2022/07/08 08:28:11;;;;;;;6.57;1.40;;;;;;;22.41;nan;95128.44;5054192;28;20201;-66
2022/07/08 08:30:55;;;;;;;6.68;2.85;;;;;;;20.93;nan;95135.38;5037019;28;20253;-66
2022/07/08 08:33:39;;;;;;;7.95;1.75;;;;;;;21.10;nan;95132.03;5050176;28;20253;-66
2022/07/08 08:36:23;;;;;;;7.18;1.95;;;;;;;20.79;nan;95140.38;5044464;28;20298;-65
2022/07/08 08:39:07;;;;;;;5.60;1.70;;;;;;;20.68;nan;95138.31;5054798;28;20205;-66
2022/07/08 08:41:51;;;;;;;5.97;1.67;;;;;;;19.56;nan;95135.03;5043443;28;20200;-66
2022/07/08 08:44:35;;;;;;;6.70;1.67;;;;;;;20.04;nan;95144.81;5042752;28;20564;-66
2022/07/08 08:47:27;;;;;;;6.80;2.88;;;;;;;19.60;nan;95146.63;5046717;28;20250;-66
2022/07/08 08:53:16;;;;;;;11.87;5.17;;;;;;;19.85;nan;95142.31;5033087;28;20753;-64
2022/07/08 08:56:00;;;;;;;4.97;1.63;;;;;;;20.59;nan;95140.75;5046989;28;20208;-65
2022/07/08 08:58:47;;;;;;;6.05;2.10;;;;;;;21.69;nan;95137.84;5050161;28;20694;-65
2022/07/08 09:01:32;;;;;;;6.30;1.63;;;;;;;21.65;nan;95140.50;5043927;28;20579;-65
2022/07/08 09:04:16;;;;;;;5.15;2.67;;;;;;;22.83;nan;95144.72;5057013;28;20920;-66
2022/07/08 09:07:00;;;;;;;5.78;1.80;;;;;;;22.23;nan;95145.47;5045837;28;20201;-65
2022/07/08 09:09:45;;;;;;;6.13;1.58;;;;;;;23.82;nan;95139.69;5049893;28;20201;-65
2022/07/08 09:12:29;;;;;;;8.27;1.73;;;;;;;22.94;nan;95149.47;5046282;28;20291;-65
2022/07/08 09:15:18;;;;;;;3.47;1.60;;;;;;;21.94;nan;95136.91;5048334;28;20764;-65
2022/07/08 09:18:07;;;;;;;4.30;1.60;;;;;;;22.47;nan;95143.00;5058238;28;20196;-64
2022/07/08 09:20:53;;;;;;;5.20;1.73;;;;;;;22.29;nan;95136.44;5044395;28;20564;-64
2022/07/08 09:23:38;;;;;;;4.85;1.80;;;;;;;22.38;nan;95135.44;5049937;28;20583;-65
2022/07/08 09:26:26;;;;;;;5.97;1.88;;;;;;;22.68;nan;95139.69;5053789;28;20205;-64
2022/07/08 09:29:11;;;;;;;6.88;1.80;;;;;;;22.40;nan;95138.41;5053398;28;21101;-65
2022/07/08 09:32:11;;;;;;;9.57;1.60;;;;;;;22.02;nan;95138.06;5051500;28;20209;-66
2022/07/08 09:34:55;;;;;;;6.22;2.05;;;;;;;22.91;nan;95147.16;5052111;28;20286;-65
2022/07/08 09:37:39;;;;;;;6.50;1.73;;;;;;;23.97;nan;95138.84;5060465;28;20204;-64
2022/07/08 09:40:23;;;;;;;4.07;1.38;;;;;;;23.81;nan;95135.34;5053519;28;20208;-65
2022/07/08 09:43:12;;;;;;;5.13;1.63;;;;;;;24.03;nan;95135.47;5049956;28;20202;-65
2022/07/08 09:46:07;;;;;;;5.40;1.60;;;;;;;25.12;nan;95139.69;5053764;28;20200;-65
2022/07/08 09:48:51;;;;;;;4.88;1.58;;;;;;;25.54;nan;95136.88;5065392;28;20264;-65
2022/07/08 09:51:36;;;;;;;5.13;1.60;;;;;;;24.33;nan;95150.28;5049539;28;20274;-65
2022/07/08 09:54:21;;;;;;;5.97;1.63;;;;;;;25.28;nan;95146.03;5055074;28;20197;-65
2022/07/08 09:57:09;;;;;;;6.10;1.65;;;;;;;24.59;nan;95146.34;5053525;28;20213;-65
2022/07/08 09:59:54;;;;;;;6.55;1.77;;;;;;;25.99;nan;95145.59;5049611;28;20454;-65
2022/07/08 10:02:40;;;;;;;4.00;1.27;;;;;;;25.68;nan;95140.97;5052194;28;20291;-65
2022/07/08 10:05:24;;;;;;;3.25;1.35;;;;;;;25.62;nan;95143.63;5038521;28;20260;-65
2022/07/08 10:08:10;;;;;;;3.10;1.40;;;;;;;25.09;nan;95140.28;5049239;28;20201;-64
2022/07/08 10:10:57;;;;;;;5.07;1.58;;;;;;;24.31;nan;95128.06;5055396;28;20252;-65
2022/07/08 10:13:43;;;;;;;3.78;1.30;;;;;;;22.76;nan;95137.25;5046886;28;20220;-64
2022/07/08 10:16:29;;;;;;;4.75;1.50;;;;;;;24.17;nan;95133.19;5046775;28;20259;-65
2022/07/08 10:19:17;;;;;;;3.88;1.70;;;;;;;25.57;nan;95132.69;5049060;28;20256;-64
2022/07/08 10:22:03;;;;;;;4.80;1.42;;;;;;;26.80;nan;95130.88;5027764;28;20320;-65
2022/07/08 10:24:48;;;;;;;7.20;1.58;;;;;;;26.35;nan;95134.56;5053467;28;20233;-65
2022/07/08 10:27:32;;;;;;;5.55;1.95;;;;;;;26.12;nan;95129.47;5049570;28;20213;-65
2022/07/08 10:30:20;;;;;;;5.50;1.80;;;;;;;26.64;nan;95133.28;5048922;28;20264;-65
2022/07/08 10:33:04;;;;;;;5.40;1.73;;;;;;;27.35;nan;95138.94;5047865;28;20266;-65
2022/07/08 10:36:03;;;;;;;5.53;1.70;;;;;;;27.09;nan;95129.59;5053357;28;20201;-65
2022/07/08 10:38:48;;;;;;;8.23;2.10;;;;;;;27.26;nan;95139.41;5050819;28;20571;-66
2022/07/08 10:41:32;;;;;;;3.42;1.15;;;;;;;28.24;nan;95131.91;5054082;28;20205;-66
2022/07/08 10:44:16;;;;;;;6.93;1.38;;;;;;;26.01;nan;95144.94;5058906;28;20209;-65
2022/07/08 10:47:08;;;;;;;4.07;1.58;;;;;;;27.76;nan;95126.41;5050333;28;20317;-67
2022/07/08 10:50:03;;;;;;;5.63;1.73;;;;;;;29.99;nan;95137.03;5052800;28;20221;-66
2022/07/08 10:52:48;;;;;;;6.45;1.55;;;;;;;27.42;nan;95133.34;5048214;28;20244;-66
2022/07/08 10:55:40;;;;;;;4.97;1.35;;;;;;;28.35;nan;95124.25;5053789;28;20197;-67
2022/07/08 10:58:24;;;;;;;3.35;1.40;;;;;;;29.03;nan;95127.94;5067134;28;21509;-69
2022/07/08 11:01:23;;;;;;;4.63;1.45;;;;;;;26.19;nan;95134.75;5051790;28;21296;-70
2022/07/08 11:04:26;;;;;;;3.65;1.88;;;;;;;28.89;nan;95130.50;5064016;28;20260;-68
2022/07/08 11:07:26;;;;;;;4.00;1.63;;;;;;;29.49;nan;95138.97;5047611;28;20205;-69
2022/07/08 11:10:11;;;;;;;3.92;1.30;;;;;;;28.81;nan;95130.34;5048807;28;20248;-67
2022/07/08 11:12:56;;;;;;;5.35;1.60;;;;;;;25.95;nan;95136.84;5046711;28;20646;-67
2022/07/08 11:15:40;;;;;;;5.38;2.05;;;;;;;26.70;nan;95136.34;5051646;28;20212;-65
2022/07/08 11:18:25;;;;;;;4.95;1.27;;;;;;;26.00;nan;95129.81;5060973;28;20205;-65
2022/07/08 11:21:10;;;;;;;5.25;2.08;;;;;;;26.53;nan;95125.78;5058019;28;20293;-67
2022/07/08 11:23:54;;;;;;;3.95;1.48;;;;;;;27.48;nan;95125.63;5052653;28;20241;-66
2022/07/08 11:26:39;;;;;;;5.70;1.60;;;;;;;27.91;nan;95129.63;5047413;28;20197;-67
2022/07/08 11:29:24;;;;;;;4.93;1.75;;;;;;;26.27;nan;95127.81;5042741;28;20352;-67
2022/07/08 11:32:08;;;;;;;3.58;1.23;;;;;;;29.69;nan;95124.91;5042031;28;20225;-69
2022/07/08 11:34:55;;;;;;;5.07;1.40;;;;;;;30.06;nan;95124.13;5051892;28;20659;-68
2022/07/08 11:37:41;;;;;;;3.20;1.27;;;;;;;30.56;nan;95132.16;5051024;28;20196;-67
2022/07/08 11:40:26;;;;;;;3.55;1.27;;;;;;;29.91;nan;95122.44;5069615;28;20578;-63
2022/07/08 11:43:14;;;;;;;9.68;1.67;;;;;;;29.67;nan;95130.66;5041046;28;20300;-64
2022/07/08 11:45:58;;;;;;;4.53;1.42;;;;;;;30.28;nan;95120.16;5046789;28;20206;-64
2022/07/08 11:48:42;;;;;;;4.57;1.42;;;;;;;29.30;nan;95118.38;5050437;28;20259;-66
2022/07/08 11:51:26;;;;;;;4.35;1.40;;;;;;;30.71;nan;95125.16;5045137;28;20585;-65
2022/07/08 11:54:10;;;;;;;3.95;1.45;;;;;;;30.43;nan;95118.91;5047846;28;20619;-65
2022/07/08 11:56:59;;;;;;;6.10;1.48;;;;;;;29.78;nan;95126.50;5042335;28;20264;-66
2022/07/08 11:59:45;;;;;;;4.25;1.50;;;;;;;29.66;nan;95129.19;5048668;28;20217;-68
2022/07/08 12:02:29;;;;;;;4.93;1.60;;;;;;;31.60;nan;95125.59;5048369;28;20206;-66
2022/07/08 12:05:14;;;;;;;4.70;1.48;;;;;;;33.98;nan;95131.47;5053104;28;20702;-66
2022/07/08 12:07:57;;;;;;;1.73;0.98;;;;;;;30.95;nan;95125.50;5051142;28;20201;-64
2022/07/08 12:10:41;;;;;;;3.67;1.30;;;;;;;30.02;nan;95129.13;5033667;28;20307;-65
2022/07/08 12:13:43;;;;;;;4.95;1.20;;;;;;;29.25;nan;95131.28;5040468;28;20658;-65
2022/07/08 12:16:54;;;;;;;5.50;1.40;;;;;;;30.44;nan;95131.94;5053533;28;20197;-67
2022/07/08 12:19:38;;;;;;;4.55;1.17;;;;;;;30.71;nan;95130.22;5043182;28;20225;-66
2022/07/08 12:22:48;;;;;;;5.38;1.50;;;;;;;32.67;nan;95117.84;5040816;28;20228;-66
2022/07/08 12:25:49;;;;;;;3.15;1.20;;;;;;;29.15;nan;95119.53;5054048;28;20674;-66
2022/07/08 12:28:33;;;;;;;4.88;1.27;;;;;;;32.07;nan;95109.34;5046403;28;20220;-67
2022/07/08 12:31:42;;;;;;;3.00;1.40;;;;;;;30.93;nan;95119.66;5037858;28;20209;-66
2022/07/08 12:34:26;;;;;;;4.95;1.48;;;;;;;32.19;nan;95117.47;5045394;28;20344;-67
2022/07/08 12:37:16;;;;;;;2.78;1.35;;;;;;;31.95;nan;95112.16;5055500;28;20251;-67
2022/07/08 12:40:18;;;;;;;4.55;1.60;;;;;;;31.83;nan;95112.03;5049741;28;20233;-67
2022/07/08 12:43:03;;;;;;;3.35;1.10;;;;;;;31.16;nan;95108.41;5049190;28;20201;-68
2022/07/08 12:45:47;;;;;;;3.47;1.13;;;;;;;31.46;nan;95111.66;5049070;28;20274;-68
2022/07/08 12:48:31;;;;;;;3.50;1.42;;;;;;;31.58;nan;95108.88;5044323;28;20206;-67
2022/07/08 12:51:15;;;;;;;3.47;1.27;;;;;;;32.63;nan;95111.97;5051410;28;20260;-68
2022/07/08 12:53:59;;;;;;;3.80;1.63;;;;;;;32.87;nan;95108.53;5055440;28;20295;-68
2022/07/08 12:56:44;;;;;;;5.25;1.40;;;;;;;32.45;nan;95103.88;5040494;28;20374;-68
2022/07/08 12:59:28;;;;;;;3.03;1.30;;;;;;;31.84;nan;95110.59;5049994;28;20197;-67
2022/07/08 13:02:13;;;;;;;3.78;1.20;;;;;;;33.69;nan;95095.78;5049462;28;20209;-68
2022/07/08 13:04:57;;;;;;;3.00;1.25;;;;;;;32.30;nan;95099.41;5041226;28;20709;-68
2022/07/08 13:07:41;;;;;;;5.72;1.45;;;;;;;34.00;nan;95100.19;5034800;28;20228;-68
2022/07/08 13:10:25;;;;;;;3.97;1.30;;;;;;;31.24;nan;95102.69;5060672;28;20315;-68
2022/07/08 13:13:09;;;;;;;5.25;1.40;;;;;;;34.00;nan;95093.66;5046340;28;20332;-68
2022/07/08 13:15:53;;;;;;;3.83;1.30;;;;;;;32.33;nan;95098.00;5057088;28;20281;-68
2022/07/08 13:18:37;;;;;;;5.85;1.33;;;;;;;32.94;nan;95104.19;5044585;28;20205;-68
2022/07/08 13:21:21;;;;;;;3.92;1.40;;;;;;;32.41;nan;95100.22;5042032;28;20202;-68
2022/07/08 13:24:06;;;;;;;5.57;1.50;;;;;;;32.00;nan;95102.03;5055590;28;20715;-69